createdAt,value
2019-01-14T00:01:29.848Z,3.60
2019-01-14T00:03:58.833Z,3.40
2019-01-14T00:06:28.200Z,3.40
2019-01-14T00:08:57.288Z,5.20
2019-01-14T00:11:26.658Z,2.90
2019-01-14T00:13:55.550Z,4.53
2019-01-14T00:16:26.704Z,3.97
2019-01-14T00:18:57.820Z,3.00
2019-01-14T00:21:27.057Z,4.40
2019-01-14T00:23:55.949Z,5.67
2019-01-14T00:26:25.090Z,2.37
2019-01-14T00:28:54.144Z,3.70
2019-01-14T00:31:23.142Z,3.98
2019-01-14T00:33:53.790Z,2.80
2019-01-14T00:36:22.896Z,2.70
2019-01-14T00:38:51.765Z,5.53
2019-01-14T00:41:20.667Z,3.20
2019-01-14T00:43:49.489Z,4.00
2019-01-14T00:46:18.487Z,3.77
2019-01-14T00:48:47.361Z,2.80
2019-01-14T00:51:16.274Z,4.15
2019-01-14T00:53:45.949Z,5.42
2019-01-14T00:56:15.017Z,7.22
2019-01-14T00:58:43.878Z,7.10
2019-01-14T01:01:12.865Z,4.92
2019-01-14T01:03:41.839Z,3.87
2019-01-14T01:06:10.705Z,7.20
2019-01-14T01:08:39.622Z,4.87
2019-01-14T01:11:08.854Z,4.05
2019-01-14T01:13:37.854Z,6.03
2019-01-14T01:16:06.878Z,5.12
2019-01-14T01:18:35.710Z,5.17
2019-01-14T01:21:04.669Z,7.33
2019-01-14T01:23:33.548Z,4.83
2019-01-14T01:26:05.280Z,12.90
2019-01-14T01:28:34.163Z,7.25
2019-01-14T01:31:03.075Z,3.83
2019-01-14T01:33:31.981Z,5.70
2019-01-14T01:36:00.786Z,4.80
2019-01-14T01:38:29.766Z,7.20
2019-01-14T01:40:58.983Z,12.23
2019-01-14T01:43:27.957Z,6.05
2019-01-14T01:45:57.008Z,5.45
2019-01-14T01:48:25.827Z,5.30
2019-01-14T01:50:54.719Z,5.00
2019-01-14T01:53:26.015Z,5.42
2019-01-14T01:55:54.836Z,4.78
2019-01-14T01:58:23.657Z,4.55
2019-01-14T02:00:52.545Z,3.37
2019-01-14T02:03:21.430Z,4.22
2019-01-14T02:05:50.631Z,6.45
2019-01-14T02:08:19.585Z,6.28
2019-01-14T02:10:48.733Z,8.85
2019-01-14T02:13:17.615Z,5.28
2019-01-14T02:15:46.496Z,4.05
2019-01-14T02:18:15.380Z,10.93
2019-01-14T02:20:44.176Z,3.60
2019-01-14T02:23:13.128Z,5.35
2019-01-14T02:25:42.018Z,3.50
2019-01-14T02:28:10.954Z,5.30
2019-01-14T02:30:39.776Z,5.92
2019-01-14T02:33:08.870Z,7.97
2019-01-14T02:35:37.783Z,5.33
2019-01-14T02:38:06.662Z,4.65
2019-01-14T02:40:35.525Z,5.55
2019-01-14T02:43:04.633Z,3.83
2019-01-14T02:45:33.736Z,4.20
2019-01-14T02:48:02.951Z,7.05
2019-01-14T02:50:31.745Z,5.87
2019-01-14T02:53:00.565Z,6.42
2019-01-14T02:55:29.678Z,3.58
2019-01-14T02:57:58.481Z,6.37
2019-01-14T03:00:28.040Z,5.25
2019-01-14T03:02:56.934Z,5.03
2019-01-14T03:05:25.789Z,7.53
2019-01-14T03:07:54.741Z,5.35
2019-01-14T03:10:23.645Z,9.18
2019-01-14T03:12:52.558Z,5.30
2019-01-14T03:15:22.031Z,9.78
2019-01-14T03:17:50.906Z,9.93
2019-01-14T03:20:19.899Z,6.20
2019-01-14T03:22:48.795Z,5.97
2019-01-14T03:25:17.890Z,6.28
2019-01-14T03:27:46.803Z,4.33
2019-01-14T03:30:20.316Z,5.30
2019-01-14T03:32:49.347Z,11.35
2019-01-14T03:35:18.363Z,4.12
2019-01-14T03:37:47.497Z,11.53
2019-01-14T03:40:18.113Z,6.67
2019-01-14T03:42:47.092Z,7.62
2019-01-14T03:45:16.175Z,5.55
2019-01-14T03:47:45.154Z,7.00
2019-01-14T03:50:22.407Z,9.28
2019-01-14T03:52:51.377Z,6.58
2019-01-14T03:55:20.354Z,6.75
2019-01-14T03:57:50.476Z,4.85
2019-01-14T04:00:19.380Z,5.83
2019-01-14T04:02:48.305Z,4.90
2019-01-14T04:05:17.150Z,10.90
2019-01-14T04:07:46.299Z,7.85
2019-01-14T04:10:16.391Z,6.53
2019-01-14T04:12:45.349Z,5.78
2019-01-14T04:15:16.489Z,5.83
2019-01-14T04:17:45.453Z,16.52
2019-01-14T04:20:16.086Z,4.35
2019-01-14T04:22:45.327Z,9.25
2019-01-14T04:25:14.302Z,9.20
2019-01-14T04:27:43.292Z,7.80
2019-01-14T04:30:15.280Z,5.65
2019-01-14T04:32:45.130Z,9.03
2019-01-14T04:35:14.526Z,5.25
2019-01-14T04:37:43.473Z,6.40
2019-01-14T04:40:13.643Z,9.40
2019-01-14T04:42:42.611Z,6.60
2019-01-14T04:45:12.008Z,4.97
2019-01-14T04:47:42.240Z,8.28
2019-01-14T04:50:13.669Z,5.42
2019-01-14T04:52:42.795Z,6.90
2019-01-14T04:55:12.095Z,8.45
2019-01-14T04:57:41.014Z,5.45
2019-01-14T05:00:13.653Z,7.25
2019-01-14T05:02:42.801Z,6.78
2019-01-14T05:05:12.858Z,6.22
2019-01-14T05:07:42.350Z,6.72
2019-01-14T05:10:12.366Z,10.40
2019-01-14T05:12:41.242Z,8.88
2019-01-14T05:15:11.297Z,8.48
2019-01-14T05:17:40.192Z,6.87
2019-01-14T05:20:12.936Z,7.00
2019-01-14T05:22:41.832Z,6.35
2019-01-14T05:25:10.896Z,7.47
2019-01-14T05:27:40.117Z,12.40
2019-01-14T05:30:09.610Z,8.35
2019-01-14T05:32:38.409Z,9.13
2019-01-14T05:35:08.341Z,7.58
2019-01-14T05:37:38.177Z,7.40
2019-01-14T05:40:17.795Z,7.20
2019-01-14T05:42:47.169Z,5.10
2019-01-14T05:45:16.141Z,5.10
2019-01-14T05:47:45.427Z,5.97
2019-01-14T05:50:14.382Z,6.90
2019-01-14T05:52:43.918Z,9.85
2019-01-14T05:55:13.338Z,7.60
2019-01-14T05:57:42.362Z,9.30
2019-01-14T06:00:18.743Z,7.28
2019-01-14T06:02:47.740Z,5.70
2019-01-14T06:05:16.901Z,5.60
2019-01-14T06:07:45.885Z,7.25
2019-01-14T06:10:14.914Z,5.35
2019-01-14T06:12:43.804Z,9.38
2019-01-14T06:15:13.028Z,5.65
2019-01-14T06:17:42.012Z,6.40
2019-01-14T06:20:12.809Z,8.43
2019-01-14T06:22:41.696Z,5.92
2019-01-14T06:25:11.853Z,8.80
2019-01-14T06:27:40.728Z,3.75
2019-01-14T06:30:14.109Z,8.50
2019-01-14T06:32:42.994Z,7.35
2019-01-14T06:35:11.934Z,8.40
2019-01-14T06:37:40.893Z,8.10
2019-01-14T06:40:11.165Z,8.95
2019-01-14T06:42:40.010Z,5.33
2019-01-14T06:45:08.972Z,8.30
2019-01-14T06:47:37.871Z,6.00
2019-01-14T06:50:08.013Z,9.93
2019-01-14T06:52:36.885Z,9.60
2019-01-14T06:55:06.109Z,7.30
2019-01-14T06:57:34.970Z,7.83
2019-01-14T07:00:05.284Z,6.72
2019-01-14T07:02:34.463Z,4.92
2019-01-14T07:05:03.388Z,11.18
2019-01-14T07:07:32.169Z,8.35
2019-01-14T07:10:01.007Z,6.70
2019-01-14T07:12:29.783Z,7.33
2019-01-14T07:14:58.814Z,6.92
2019-01-14T07:17:27.597Z,5.50
2019-01-14T07:19:56.457Z,20.97
2019-01-14T07:22:25.321Z,8.45
2019-01-14T07:24:54.097Z,6.22
2019-01-14T07:27:22.975Z,6.42
2019-01-14T07:29:51.773Z,9.83
2019-01-14T07:32:20.737Z,11.48
2019-01-14T07:34:49.638Z,12.45
2019-01-14T07:37:18.445Z,7.83
2019-01-14T07:39:47.244Z,5.60
2019-01-14T07:42:16.126Z,10.18
2019-01-14T07:44:45.171Z,6.33
2019-01-14T07:47:14.288Z,4.90
2019-01-14T07:49:43.089Z,5.22
2019-01-14T07:52:12.016Z,13.55
2019-01-14T07:54:40.913Z,10.65
2019-01-14T07:57:09.971Z,5.37
2019-01-14T07:59:38.773Z,11.05
2019-01-14T08:02:07.697Z,8.60
2019-01-14T08:04:36.485Z,5.55
2019-01-14T08:07:05.428Z,9.38
2019-01-14T08:09:34.296Z,14.15
2019-01-14T08:12:03.072Z,9.58
2019-01-14T08:14:31.928Z,8.73
2019-01-14T08:17:00.962Z,8.93
2019-01-14T08:19:29.998Z,7.22
2019-01-14T08:21:58.781Z,10.93
2019-01-14T08:24:27.577Z,9.55
2019-01-14T08:26:56.363Z,4.90
2019-01-14T08:29:25.146Z,6.65
2019-01-14T08:31:54.001Z,7.08
2019-01-14T08:34:23.076Z,10.08
2019-01-14T08:36:51.849Z,9.28
2019-01-14T08:39:20.673Z,5.85
2019-01-14T08:41:56.034Z,7.10
2019-01-14T08:44:31.666Z,6.78
2019-01-14T08:47:00.475Z,15.15
2019-01-14T08:49:29.581Z,5.08
2019-01-14T08:51:58.377Z,6.30
2019-01-14T08:54:27.152Z,8.15
2019-01-14T08:56:56.038Z,5.55
2019-01-14T08:59:24.824Z,5.28
2019-01-14T09:01:53.689Z,5.35
2019-01-14T09:04:24.440Z,7.70
2019-01-14T09:06:53.270Z,6.75
2019-01-14T09:09:22.043Z,7.08
2019-01-14T09:11:50.834Z,6.42
2019-01-14T09:14:19.686Z,7.20
2019-01-14T09:16:48.532Z,8.65
2019-01-14T09:19:17.458Z,5.45
2019-01-14T09:21:46.337Z,6.35
2019-01-14T09:24:15.129Z,6.33
2019-01-14T09:26:45.039Z,7.67
2019-01-14T09:29:13.966Z,6.80
2019-01-14T09:31:42.837Z,8.35
2019-01-14T09:34:11.701Z,7.83
2019-01-14T09:36:40.548Z,5.30
2019-01-14T09:39:10.384Z,6.40
2019-01-14T09:41:39.177Z,5.70
2019-01-14T09:44:08.179Z,5.57
2019-01-14T09:46:37.088Z,7.50
2019-01-14T09:49:05.947Z,6.90
2019-01-14T09:51:34.730Z,5.90
2019-01-14T09:54:03.637Z,8.40
2019-01-14T09:56:32.424Z,4.57
2019-01-14T09:59:01.197Z,7.27
2019-01-14T10:01:30.072Z,7.27
2019-01-14T10:03:58.841Z,6.60
2019-01-14T10:06:27.748Z,11.93
2019-01-14T10:08:56.592Z,5.90
2019-01-14T10:11:25.412Z,9.03
2019-01-14T10:13:54.197Z,6.10
2019-01-14T10:16:23.305Z,6.73
2019-01-14T10:18:52.369Z,13.03
2019-01-14T10:21:21.220Z,7.40
2019-01-14T10:23:50.321Z,6.67
2019-01-14T10:26:19.260Z,7.83
2019-01-14T10:28:48.281Z,7.73
2019-01-14T10:31:19.974Z,6.07
2019-01-14T10:33:47.807Z,10.53
2019-01-14T10:36:16.570Z,8.60
2019-01-14T10:38:50.341Z,4.63
2019-01-14T10:41:16.185Z,6.97
2019-01-14T10:43:45.122Z,8.47
2019-01-14T10:46:13.892Z,8.83
2019-01-14T10:48:42.668Z,12.90
2019-01-14T10:51:11.581Z,8.90
2019-01-14T10:53:40.605Z,11.50
2019-01-14T10:56:09.536Z,12.73
2019-01-14T10:58:38.314Z,7.50
2019-01-14T11:01:07.180Z,16.50
2019-01-14T11:03:36.021Z,11.30
2019-01-14T11:06:05.570Z,8.68
2019-01-14T11:08:35.042Z,5.80
2019-01-14T11:11:04.261Z,9.88
2019-01-14T11:13:33.019Z,4.90
2019-01-14T11:16:01.807Z,8.33
2019-01-14T11:18:30.581Z,5.67
2019-01-14T11:20:59.693Z,8.85
2019-01-14T11:23:28.466Z,5.28
2019-01-14T11:25:57.495Z,4.92
2019-01-14T11:28:26.327Z,5.40
2019-01-14T11:30:55.352Z,5.08
2019-01-14T11:33:24.122Z,6.92
2019-01-14T11:35:53.393Z,4.85
2019-01-14T11:38:46.311Z,7.00
2019-01-14T11:41:15.504Z,9.48
2019-01-14T11:43:44.281Z,7.25
2019-01-14T11:46:13.078Z,12.18
2019-01-14T11:48:41.925Z,9.45
2019-01-14T13:51:53.618Z,6.40
2019-01-14T13:54:22.675Z,3.50
2019-01-14T13:56:52.146Z,3.02
2019-01-14T13:59:21.126Z,3.62
2019-01-14T14:01:50.671Z,2.20
2019-01-14T14:04:20.146Z,2.20
2019-01-14T14:07:05.261Z,2.60
2019-01-14T14:09:41.005Z,4.10
2019-01-14T14:12:05.634Z,3.05
2019-01-14T14:14:34.400Z,2.40
2019-01-14T14:17:03.236Z,2.95
2019-01-14T14:19:32.005Z,4.33
2019-01-14T14:22:00.776Z,4.70
2019-01-14T14:25:08.420Z,2.75
2019-01-14T14:27:37.381Z,3.47
2019-01-14T14:30:14.366Z,3.65
2019-01-14T14:32:43.217Z,4.37
2019-01-14T14:35:12.146Z,4.33
2019-01-14T14:37:40.984Z,7.42
2019-01-14T14:40:10.083Z,4.15
2019-01-14T14:42:38.984Z,6.10
2019-01-14T14:45:08.836Z,5.42
2019-01-14T14:47:37.736Z,3.33
2019-01-14T14:50:08.986Z,5.55
2019-01-14T14:52:37.896Z,4.33
2019-01-14T14:55:07.569Z,5.45
2019-01-14T14:57:36.392Z,7.40
2019-01-14T15:00:09.105Z,4.12
2019-01-14T15:02:37.859Z,3.77
2019-01-14T15:05:07.481Z,8.70
2019-01-14T15:07:36.257Z,11.15
2019-01-14T15:10:06.377Z,10.10
2019-01-14T15:12:35.220Z,6.78
2019-01-14T15:15:04.956Z,8.58
2019-01-14T15:17:33.725Z,5.42
2019-01-14T15:20:02.672Z,10.50
2019-01-14T15:22:31.437Z,11.85
2019-01-14T15:25:00.225Z,6.80
2019-01-14T15:27:29.313Z,10.03
2019-01-14T15:29:58.088Z,11.50
2019-01-14T15:32:26.868Z,14.15
2019-01-14T15:34:55.660Z,11.95
2019-01-14T15:37:24.435Z,5.80
2019-01-14T15:39:53.206Z,8.88
2019-01-14T15:42:22.180Z,6.35
2019-01-14T15:44:50.956Z,5.50
2019-01-14T15:47:19.981Z,10.25
2019-01-14T15:49:48.777Z,11.35
2019-01-14T15:52:17.541Z,9.18
2019-01-14T15:54:46.328Z,9.30
2019-01-14T15:57:15.099Z,7.55
2019-01-14T15:59:43.940Z,10.53
2019-01-14T16:02:12.738Z,11.73
2019-01-14T16:04:41.580Z,7.58
2019-01-14T16:07:10.364Z,11.00
2019-01-14T16:09:39.387Z,7.33
2019-01-14T16:12:08.168Z,7.25
2019-01-14T16:14:36.945Z,10.13
2019-01-14T16:17:05.714Z,9.43
2019-01-14T16:19:34.478Z,15.63
2019-01-14T16:22:03.611Z,20.97
2019-01-14T16:24:32.368Z,14.53
2019-01-14T16:27:02.033Z,10.13
2019-01-14T16:29:30.923Z,10.35
2019-01-14T16:31:59.789Z,12.63
2019-01-14T16:34:28.568Z,12.45
2019-01-14T16:36:57.416Z,6.92
2019-01-14T16:39:26.429Z,8.18
2019-01-14T16:41:55.205Z,9.98
2019-01-14T16:44:24.109Z,7.72
2019-01-14T16:46:52.893Z,11.10
2019-01-14T16:49:21.664Z,10.25
2019-01-14T16:51:50.445Z,10.90
2019-01-14T16:54:19.212Z,23.85
2019-01-14T16:56:47.991Z,23.32
2019-01-14T16:59:16.773Z,19.77
2019-01-14T17:01:45.642Z,15.70
2019-01-14T17:04:14.408Z,21.90
2019-01-14T17:06:43.447Z,13.65
2019-01-14T17:09:12.280Z,7.55
2019-01-14T17:11:41.288Z,6.28
2019-01-14T17:14:10.057Z,8.75
2019-01-14T17:16:38.829Z,5.15
2019-01-14T17:19:07.750Z,5.42
2019-01-14T17:21:36.526Z,9.83
2019-01-14T17:24:05.437Z,6.30
2019-01-14T17:26:34.362Z,11.15
2019-01-14T17:29:03.217Z,6.72
2019-01-14T17:31:32.020Z,12.20
2019-01-14T17:34:00.793Z,12.65
2019-01-14T17:36:29.654Z,9.05
2019-01-14T17:38:58.424Z,9.25
2019-01-14T17:41:28.077Z,8.98
2019-01-14T17:43:57.078Z,5.40
2019-01-14T17:46:25.925Z,5.03
2019-01-14T17:48:54.777Z,11.15
2019-01-14T17:51:23.806Z,12.65
2019-01-14T17:53:52.817Z,9.53
2019-01-14T17:56:21.676Z,13.13
2019-01-14T17:58:50.450Z,8.85
2019-01-14T18:01:19.285Z,6.78
2019-01-14T18:03:48.144Z,13.28
2019-01-14T18:06:16.909Z,9.45
2019-01-14T18:08:45.702Z,10.13
2019-01-14T18:11:14.456Z,12.37
2019-01-14T18:13:43.309Z,8.95
2019-01-14T18:16:12.088Z,8.85
2019-01-14T18:18:40.868Z,10.18
2019-01-14T18:21:13.846Z,9.65
2019-01-14T18:23:40.228Z,11.65
2019-01-14T18:26:09.080Z,8.75
2019-01-14T18:28:37.864Z,7.75
2019-01-14T18:31:06.712Z,16.32
2019-01-14T18:33:35.748Z,29.27
2019-01-14T18:36:04.776Z,20.55
2019-01-14T18:38:33.632Z,36.03
2019-01-14T18:41:02.478Z,30.17
2019-01-14T18:43:31.264Z,22.50
2019-01-14T18:46:00.121Z,25.00
2019-01-14T18:48:28.989Z,16.62
2019-01-14T18:50:57.758Z,18.35
2019-01-14T18:53:26.530Z,13.88
2019-01-14T18:55:55.373Z,16.73
2019-01-14T18:58:24.246Z,25.70
2019-01-14T19:00:53.039Z,27.48
2019-01-14T19:03:22.142Z,17.75
2019-01-14T19:05:51.063Z,29.95
2019-01-14T19:08:20.132Z,19.77
2019-01-14T19:10:54.313Z,13.62
2019-01-14T19:13:19.549Z,15.80
2019-01-14T19:15:48.324Z,17.37
2019-01-14T19:18:17.120Z,9.83
2019-01-14T19:20:47.931Z,11.35
2019-01-14T19:23:17.021Z,14.70
2019-01-14T19:25:45.778Z,29.30
2019-01-14T19:28:14.782Z,34.60
2019-01-14T19:30:43.548Z,23.75
2019-01-14T19:33:12.421Z,18.67
2019-01-14T19:35:41.188Z,17.70
2019-01-14T19:38:10.097Z,9.73
2019-01-14T19:40:38.988Z,8.08
2019-01-14T19:43:07.842Z,7.03
2019-01-14T19:45:36.706Z,11.30
2019-01-14T19:48:05.659Z,6.95
2019-01-14T19:50:34.452Z,7.33
2019-01-14T19:53:03.691Z,10.00
2019-01-14T19:55:33.071Z,8.08
2019-01-14T19:58:01.917Z,9.90
2019-01-14T20:00:31.698Z,8.08
2019-01-14T20:03:00.612Z,8.93
2019-01-14T20:05:29.472Z,9.03
2019-01-14T20:07:58.497Z,11.28
2019-01-14T20:10:27.362Z,11.33
2019-01-14T20:12:56.812Z,10.50
2019-01-14T20:15:26.162Z,12.00
2019-01-14T20:17:55.251Z,10.82
2019-01-14T20:20:24.123Z,11.83
2019-01-14T20:22:52.977Z,11.53
2019-01-14T20:25:22.136Z,11.68
2019-01-14T20:27:51.239Z,9.90
2019-01-14T20:30:24.165Z,9.00
2019-01-14T20:32:53.231Z,10.10
2019-01-14T20:35:22.337Z,8.73
2019-01-14T20:37:51.198Z,8.93
2019-01-14T20:40:20.137Z,10.85
2019-01-14T20:42:48.986Z,9.93
2019-01-14T20:45:17.913Z,8.10
2019-01-14T20:47:46.885Z,13.83
2019-01-14T20:50:17.659Z,15.38
2019-01-14T20:52:46.738Z,17.62
2019-01-14T20:55:15.782Z,18.15
2019-01-14T20:57:44.730Z,20.43
2019-01-14T21:00:20.994Z,17.77
2019-01-14T21:02:49.885Z,13.25
2019-01-14T21:05:19.457Z,19.52
2019-01-14T21:07:48.391Z,15.50
2019-01-14T21:10:17.413Z,14.60
2019-01-14T21:12:46.345Z,11.93
2019-01-14T21:15:15.508Z,16.90
2019-01-14T21:17:44.372Z,15.15
2019-01-14T21:20:18.696Z,12.07
2019-01-14T21:22:47.868Z,13.80
2019-01-14T21:25:16.851Z,12.28
2019-01-14T21:27:46.087Z,14.65
2019-01-14T21:30:17.803Z,11.10
2019-01-14T21:32:49.044Z,13.22
2019-01-14T21:35:22.574Z,18.98
2019-01-14T21:37:53.842Z,18.67
2019-01-14T21:40:28.782Z,20.35
2019-01-14T21:43:02.542Z,23.70
2019-01-14T21:45:32.308Z,19.17
2019-01-14T21:48:04.665Z,20.55
2019-01-14T21:50:33.443Z,14.47
2019-01-14T21:53:02.292Z,20.05
2019-01-14T21:55:31.169Z,13.35
2019-01-14T21:58:02.173Z,14.73
2019-01-14T22:00:31.096Z,14.80
2019-01-14T22:02:59.884Z,14.93
2019-01-14T22:05:29.485Z,19.92
2019-01-14T22:07:58.522Z,13.80
2019-01-14T22:10:28.665Z,15.95
2019-01-14T22:12:57.456Z,18.55
2019-01-14T22:15:27.639Z,18.48
2019-01-14T22:17:56.505Z,9.50
2019-01-14T22:20:29.345Z,15.00
2019-01-14T22:22:58.881Z,12.85
2019-01-14T22:25:27.961Z,11.20
2019-01-14T22:27:56.745Z,8.10
2019-01-14T22:30:33.468Z,7.17
2019-01-14T22:33:02.384Z,8.80
2019-01-14T22:35:31.230Z,11.12
2019-01-14T22:38:01.527Z,17.90
2019-01-14T22:40:30.573Z,8.35
2019-01-14T22:42:59.537Z,9.03
2019-01-14T22:45:28.379Z,13.08
2019-01-14T22:47:57.160Z,11.33
2019-01-14T22:50:39.492Z,11.05
2019-01-14T22:53:08.650Z,9.18
2019-01-14T22:55:37.678Z,19.77
2019-01-14T22:58:07.360Z,14.55
2019-01-14T23:01:17.948Z,11.12
2019-01-14T23:03:49.186Z,11.48
2019-01-14T23:06:18.107Z,12.10
2019-01-14T23:08:47.036Z,9.53
2019-01-14T23:11:15.930Z,8.25
2019-01-14T23:13:44.837Z,10.15
2019-01-14T23:16:13.696Z,6.80
2019-01-14T23:18:42.482Z,10.80
2019-01-14T23:21:11.358Z,10.20
2019-01-14T23:23:40.132Z,12.88
2019-01-14T23:26:08.996Z,10.70
2019-01-14T23:28:38.025Z,16.02
2019-01-14T23:31:07.042Z,17.73
2019-01-14T23:33:35.821Z,12.25
2019-01-14T23:36:05.389Z,11.78
2019-01-14T23:38:34.262Z,15.85
2019-01-14T23:41:03.062Z,12.90
2019-01-14T23:43:32.009Z,11.28
2019-01-14T23:46:01.045Z,27.17
2019-01-14T23:48:30.234Z,17.32
2019-01-14T23:50:59.009Z,24.35
2019-01-14T23:53:27.873Z,15.95
2019-01-14T23:55:56.727Z,15.28
2019-01-14T23:58:25.782Z,13.38
